createdAt,value
2017-12-03T00:01:48.381Z,18.37
2017-12-03T00:04:15.427Z,17.17
2017-12-03T00:06:42.431Z,18.03
2017-12-03T00:09:08.679Z,17.70
2017-12-03T00:11:34.960Z,18.33
2017-12-03T00:14:01.187Z,18.90
2017-12-03T00:16:28.117Z,19.70
2017-12-03T00:18:55.194Z,17.23
2017-12-03T00:21:21.439Z,17.80
2017-12-03T00:23:47.637Z,17.27
2017-12-03T00:26:13.914Z,16.40
2017-12-03T00:28:40.167Z,16.87
2017-12-03T00:31:07.186Z,16.83
2017-12-03T00:33:33.419Z,17.17
2017-12-03T00:35:59.646Z,16.83
2017-12-03T00:38:25.890Z,16.80
2017-12-03T00:40:52.210Z,16.77
2017-12-03T00:43:18.448Z,18.53
2017-12-03T00:45:44.646Z,17.70
2017-12-03T00:48:10.908Z,18.17
2017-12-03T00:50:37.197Z,17.10
2017-12-03T00:53:03.475Z,17.47
2017-12-03T00:55:30.488Z,18.20
2017-12-03T00:57:56.734Z,16.57
2017-12-03T01:00:23.011Z,17.83
2017-12-03T01:02:49.289Z,17.73
2017-12-03T01:05:15.582Z,16.63
2017-12-03T01:07:41.838Z,17.73
2017-12-03T01:10:08.057Z,16.30
2017-12-03T01:12:34.318Z,17.10
2017-12-03T01:15:00.561Z,15.63
2017-12-03T01:17:27.619Z,15.63
2017-12-03T01:19:54.694Z,16.13
2017-12-03T01:22:20.923Z,16.13
2017-12-03T01:24:47.175Z,16.83
2017-12-03T01:27:13.399Z,15.70
2017-12-03T01:29:39.694Z,17.73
2017-12-03T01:32:05.949Z,15.67
2017-12-03T01:34:32.233Z,16.30
2017-12-03T01:36:59.176Z,17.00
2017-12-03T01:39:26.199Z,16.23
2017-12-03T01:41:52.413Z,16.70
2017-12-03T01:44:18.652Z,16.70
2017-12-03T01:46:44.920Z,16.30
2017-12-03T01:49:11.872Z,16.80
2017-12-03T01:51:38.871Z,17.20
2017-12-03T01:54:05.157Z,15.80
2017-12-03T01:56:31.463Z,17.40
2017-12-03T01:58:58.480Z,16.23
2017-12-03T02:01:24.707Z,16.63
2017-12-03T02:03:51.004Z,14.93
2017-12-03T02:06:17.284Z,16.07
2017-12-03T02:08:43.664Z,16.83
2017-12-03T02:11:09.998Z,16.73
2017-12-03T02:13:36.215Z,15.40
2017-12-03T02:16:02.493Z,16.57
2017-12-03T02:18:28.734Z,13.80
2017-12-03T02:20:55.796Z,15.90
2017-12-03T02:23:22.787Z,14.73
2017-12-03T02:25:49.055Z,15.27
2017-12-03T02:28:16.075Z,14.53
2017-12-03T02:30:42.381Z,15.07
2017-12-03T02:33:08.627Z,13.57
2017-12-03T02:35:34.914Z,14.80
2017-12-03T02:38:01.915Z,14.70
2017-12-03T02:40:28.182Z,14.63
2017-12-03T02:42:55.167Z,13.80
2017-12-03T02:45:21.435Z,12.43
2017-12-03T02:47:47.655Z,11.80
2017-12-03T02:50:13.996Z,11.60
2017-12-03T02:52:40.252Z,13.23
2017-12-03T02:55:07.306Z,15.23
2017-12-03T02:57:33.561Z,13.10
2017-12-03T02:59:59.818Z,14.07
2017-12-03T03:02:26.082Z,15.20
2017-12-03T03:04:53.053Z,16.00
2017-12-03T03:07:19.310Z,14.83
2017-12-03T03:09:45.543Z,16.33
2017-12-03T03:12:11.745Z,14.00
2017-12-03T03:14:38.018Z,14.60
2017-12-03T03:17:04.254Z,15.07
2017-12-03T03:19:30.551Z,14.07
2017-12-03T03:21:56.804Z,15.03
2017-12-03T03:24:23.772Z,15.00
2017-12-03T03:26:50.763Z,13.83
2017-12-03T03:29:17.008Z,14.77
2017-12-03T03:31:43.257Z,16.43
2017-12-03T03:34:10.216Z,15.80
2017-12-03T03:36:37.252Z,11.57
2017-12-03T03:39:03.513Z,12.17
2017-12-03T03:41:30.447Z,13.43
2017-12-03T03:43:57.396Z,11.47
2017-12-03T03:46:24.406Z,11.07
2017-12-03T03:48:50.687Z,11.20
2017-12-03T03:51:16.958Z,11.73
2017-12-03T03:53:43.184Z,10.97
2017-12-03T03:56:09.449Z,12.00
2017-12-03T03:58:35.760Z,11.13
2017-12-03T04:01:02.093Z,12.00
2017-12-03T04:03:28.394Z,10.23
2017-12-03T04:05:54.671Z,9.50
2017-12-03T04:08:21.652Z,9.70
2017-12-03T04:10:47.955Z,9.17
2017-12-03T04:13:15.035Z,10.13
2017-12-03T04:15:41.326Z,11.10
2017-12-03T04:18:08.323Z,10.20
2017-12-03T04:20:34.585Z,10.40
2017-12-03T04:23:00.808Z,9.70
2017-12-03T04:25:27.056Z,9.40
2017-12-03T04:27:54.019Z,11.07
2017-12-03T04:30:21.036Z,11.90
2017-12-03T04:32:48.036Z,11.67
2017-12-03T04:35:14.355Z,10.90
2017-12-03T04:37:40.671Z,9.90
2017-12-03T04:40:06.983Z,10.47
2017-12-03T04:42:34.077Z,8.80
2017-12-03T04:45:00.358Z,9.30
2017-12-03T04:47:34.574Z,9.77
2017-12-03T04:50:01.537Z,8.23
2017-12-03T04:52:28.566Z,8.30
2017-12-03T04:54:54.863Z,9.03
2017-12-03T04:57:21.132Z,8.93
2017-12-03T04:59:48.195Z,8.87
2017-12-03T05:02:14.465Z,9.40
2017-12-03T05:04:40.737Z,8.80
2017-12-03T05:07:07.741Z,8.53
2017-12-03T05:09:34.051Z,8.23
2017-12-03T05:12:00.331Z,9.13
2017-12-03T05:14:27.363Z,8.63
2017-12-03T05:16:53.606Z,8.17
2017-12-03T05:19:19.919Z,8.97
2017-12-03T05:21:46.274Z,8.23
2017-12-03T05:24:13.271Z,7.20
2017-12-03T05:26:39.554Z,8.70
2017-12-03T05:29:06.649Z,7.80
2017-12-03T05:31:32.928Z,9.20
2017-12-03T05:33:59.196Z,8.63
2017-12-03T05:36:25.522Z,9.53
2017-12-03T05:38:51.815Z,8.33
2017-12-03T05:41:18.841Z,8.40
2017-12-03T05:43:45.090Z,9.47
2017-12-03T05:46:11.343Z,8.83
2017-12-03T05:48:38.340Z,10.30
2017-12-03T05:51:04.620Z,9.10
2017-12-03T05:53:31.627Z,9.63
2017-12-03T05:55:57.944Z,9.07
2017-12-03T05:58:24.269Z,8.90
2017-12-03T06:00:50.536Z,8.53
2017-12-03T06:03:16.842Z,9.40
2017-12-03T06:05:43.159Z,8.83
2017-12-03T06:08:09.439Z,9.70
2017-12-03T06:10:36.517Z,9.80
2017-12-03T06:13:02.807Z,9.47
2017-12-03T06:15:29.773Z,9.50
2017-12-03T06:17:56.766Z,9.70
2017-12-03T06:20:23.050Z,9.50
2017-12-03T06:22:50.087Z,10.27
2017-12-03T06:25:17.148Z,9.67
2017-12-03T06:27:44.110Z,10.57
2017-12-03T06:30:10.411Z,10.80
2017-12-03T06:32:37.507Z,10.93
2017-12-03T06:35:03.820Z,11.23
2017-12-03T06:37:30.119Z,10.80
2017-12-03T06:39:57.104Z,10.33
2017-12-03T06:42:23.346Z,10.57
2017-12-03T06:44:49.611Z,11.50
2017-12-03T06:47:15.878Z,10.93
2017-12-03T06:49:42.160Z,10.07
2017-12-03T06:52:08.398Z,11.60
2017-12-03T06:54:35.427Z,10.30
2017-12-03T06:57:01.686Z,11.03
2017-12-03T06:59:28.721Z,10.90
2017-12-03T07:01:55.751Z,11.40
2017-12-03T07:04:22.048Z,12.30
2017-12-03T07:06:48.355Z,11.30
2017-12-03T07:09:14.615Z,11.07
2017-12-03T07:11:40.871Z,11.20
2017-12-03T07:14:07.170Z,11.17
2017-12-03T07:16:33.436Z,12.53
2017-12-03T07:18:59.758Z,12.47
2017-12-03T07:21:26.128Z,11.63
2017-12-03T07:23:52.411Z,10.30
2017-12-03T07:26:18.766Z,10.93
2017-12-03T07:28:45.773Z,12.00
2017-12-03T07:31:12.060Z,12.47
2017-12-03T07:33:39.110Z,11.30
2017-12-03T07:36:06.111Z,12.10
2017-12-03T07:38:32.451Z,13.40
2017-12-03T07:40:58.799Z,12.63
2017-12-03T07:43:25.863Z,13.50
2017-12-03T07:45:52.909Z,15.30
2017-12-03T07:48:19.951Z,12.57
2017-12-03T07:50:46.974Z,11.97
2017-12-03T07:53:13.267Z,11.10
2017-12-03T07:55:39.589Z,12.30
2017-12-03T07:58:05.867Z,14.47
2017-12-03T08:00:32.116Z,10.80
2017-12-03T08:02:58.419Z,10.00
2017-12-03T08:05:24.681Z,9.43
2017-12-03T08:07:51.707Z,10.73
2017-12-03T08:10:17.988Z,9.50
2017-12-03T08:12:44.287Z,10.13
2017-12-03T08:15:11.352Z,9.87
2017-12-03T08:17:37.613Z,9.20
2017-12-03T08:20:03.888Z,10.97
2017-12-03T08:22:30.972Z,11.60
2017-12-03T08:24:57.299Z,11.50
2017-12-03T08:27:24.432Z,11.97
2017-12-03T08:29:50.742Z,12.50
2017-12-03T08:32:17.774Z,10.07
2017-12-03T08:34:44.083Z,10.27
2017-12-03T08:37:10.351Z,11.23
2017-12-03T08:39:36.635Z,11.37
2017-12-03T08:42:02.974Z,12.13
2017-12-03T08:44:29.299Z,12.10
2017-12-03T08:46:55.637Z,13.30
2017-12-03T08:49:21.915Z,13.87
2017-12-03T08:51:48.964Z,18.50
2017-12-03T08:54:15.964Z,17.30
2017-12-03T08:56:42.203Z,12.80
2017-12-03T08:59:08.465Z,14.20
2017-12-03T09:01:35.507Z,15.10
2017-12-03T09:04:02.485Z,14.90
2017-12-03T09:06:28.698Z,15.23
2017-12-03T09:08:55.008Z,15.13
2017-12-03T09:11:22.044Z,14.40
2017-12-03T09:13:48.382Z,13.50
2017-12-03T09:16:15.457Z,12.10
2017-12-03T09:18:41.769Z,13.07
2017-12-03T09:21:08.859Z,13.20
2017-12-03T09:23:35.143Z,13.60
2017-12-03T09:26:02.112Z,13.43
2017-12-03T09:28:28.418Z,11.83
2017-12-03T09:30:55.402Z,11.83
2017-12-03T09:33:21.626Z,13.00
2017-12-03T09:35:47.952Z,13.13
2017-12-03T09:38:14.267Z,15.10
2017-12-03T09:40:40.570Z,14.20
2017-12-03T09:43:06.877Z,14.17
2017-12-03T09:45:33.145Z,15.40
2017-12-03T09:48:00.151Z,13.80
2017-12-03T09:50:26.464Z,15.83
2017-12-03T09:52:52.786Z,13.90
2017-12-03T09:55:19.087Z,15.20
2017-12-03T09:57:46.103Z,14.50
2017-12-03T10:00:12.371Z,16.03
2017-12-03T10:02:38.706Z,16.40
2017-12-03T10:05:05.029Z,13.90
2017-12-03T10:07:32.052Z,15.80
2017-12-03T10:09:58.370Z,16.70
2017-12-03T10:12:24.721Z,16.07
2017-12-03T10:14:51.732Z,17.00
2017-12-03T10:17:18.031Z,14.97
2017-12-03T10:19:44.261Z,16.83
2017-12-03T10:22:10.481Z,16.30
2017-12-03T10:24:37.495Z,15.80
2017-12-03T10:27:03.772Z,16.53
2017-12-03T10:29:30.107Z,17.30
2017-12-03T10:31:56.433Z,17.93
2017-12-03T10:34:22.747Z,17.03
2017-12-03T10:36:49.015Z,17.13
2017-12-03T10:39:15.354Z,18.20
2017-12-03T10:41:41.601Z,17.80
2017-12-03T10:44:08.635Z,18.10
2017-12-03T10:46:34.965Z,17.50
2017-12-03T10:49:01.171Z,18.10
2017-12-03T10:51:27.394Z,16.67
2017-12-03T10:53:53.672Z,18.80
2017-12-03T10:56:19.952Z,16.70
2017-12-03T10:58:46.210Z,18.00
2017-12-03T11:01:12.478Z,18.60
2017-12-03T11:03:39.525Z,16.40
2017-12-03T11:06:06.518Z,16.93
2017-12-03T11:08:32.834Z,18.50
2017-12-03T11:10:59.096Z,15.90
2017-12-03T11:13:25.373Z,18.27
2017-12-03T11:15:52.418Z,18.03
2017-12-03T11:18:18.683Z,19.20
2017-12-03T11:20:44.983Z,39.07
2017-12-03T11:23:11.282Z,18.43
2017-12-03T11:25:38.324Z,16.90
2017-12-03T11:28:05.358Z,16.73
2017-12-03T11:30:31.622Z,18.07
2017-12-03T11:32:58.662Z,19.77
2017-12-03T11:35:25.719Z,18.10
2017-12-03T11:37:52.742Z,17.40
2017-12-03T11:40:19.724Z,18.20
2017-12-03T11:42:45.966Z,20.00
2017-12-03T11:45:12.209Z,20.10
2017-12-03T11:47:38.503Z,20.33
2017-12-03T11:50:05.579Z,18.23
2017-12-03T11:52:31.848Z,20.50
2017-12-03T11:54:58.091Z,21.43
2017-12-03T11:57:25.097Z,20.67
2017-12-03T11:59:51.310Z,19.87
2017-12-03T12:02:17.623Z,19.63
2017-12-03T12:04:43.891Z,18.40
2017-12-03T12:07:10.095Z,20.70
2017-12-03T12:09:36.379Z,19.00
2017-12-03T12:12:03.366Z,19.17
2017-12-03T12:14:29.625Z,18.53
2017-12-03T12:16:55.845Z,19.00
2017-12-03T12:19:22.168Z,19.53
2017-12-03T12:21:48.480Z,17.17
2017-12-03T12:24:14.692Z,18.37
2017-12-03T12:26:41.671Z,17.93
2017-12-03T12:29:07.939Z,18.33
2017-12-03T12:31:34.191Z,18.20
2017-12-03T12:34:01.125Z,18.73
2017-12-03T12:36:28.083Z,19.37
2017-12-03T12:38:55.088Z,19.73
2017-12-03T12:41:21.317Z,18.67
2017-12-03T12:43:48.359Z,19.37
2017-12-03T12:46:14.592Z,18.67
2017-12-03T12:48:40.828Z,20.77
2017-12-03T12:51:07.095Z,19.90
2017-12-03T12:53:33.366Z,20.90
2017-12-03T12:55:59.702Z,21.50
2017-12-03T12:58:25.917Z,19.57
2017-12-03T13:00:52.205Z,17.23
2017-12-03T13:03:19.270Z,21.23
2017-12-03T13:05:45.481Z,21.27
2017-12-03T13:08:12.519Z,21.03
2017-12-03T13:10:39.568Z,20.50
2017-12-03T13:13:06.501Z,16.90
2017-12-03T13:15:32.699Z,20.37
2017-12-03T13:17:58.963Z,19.57
2017-12-03T13:20:25.897Z,20.07
2017-12-03T13:22:52.142Z,20.17
2017-12-03T13:25:19.134Z,20.70
2017-12-03T13:27:45.397Z,21.77
2017-12-03T13:30:11.630Z,23.40
2017-12-03T13:32:38.583Z,22.60
2017-12-03T13:35:04.822Z,22.43
2017-12-03T13:37:31.839Z,22.47
2017-12-03T13:39:58.086Z,22.80
2017-12-03T13:42:24.326Z,21.87
2017-12-03T13:44:51.244Z,22.20
2017-12-03T13:47:17.493Z,23.60
2017-12-03T13:49:43.752Z,22.20
2017-12-03T13:52:10.041Z,22.50
2017-12-03T13:54:37.055Z,22.33
2017-12-03T13:57:03.339Z,21.60
2017-12-03T13:59:30.369Z,25.33
2017-12-03T14:01:57.336Z,22.97
2017-12-03T14:04:24.337Z,22.27
2017-12-03T14:06:50.615Z,23.80
2017-12-03T14:09:17.615Z,21.97
2017-12-03T14:11:43.867Z,21.23
2017-12-03T14:14:10.048Z,23.97
2017-12-03T14:16:36.239Z,25.80
2017-12-03T14:19:03.260Z,24.00
2017-12-03T14:21:29.576Z,23.00
2017-12-03T14:23:55.821Z,21.07
2017-12-03T14:26:22.111Z,24.70
2017-12-03T14:28:48.384Z,21.90
2017-12-03T14:31:14.577Z,24.10
2017-12-03T14:33:40.857Z,22.60
2017-12-03T14:36:07.855Z,24.03
2017-12-03T14:38:34.158Z,23.73
2017-12-03T14:41:00.432Z,21.70
2017-12-03T14:43:26.716Z,20.03
2017-12-03T14:45:53.019Z,22.97
2017-12-03T14:48:20.067Z,19.63
2017-12-03T14:50:47.036Z,22.43
2017-12-03T14:53:13.292Z,22.97
2017-12-03T14:55:39.514Z,21.70
2017-12-03T14:58:05.776Z,21.70
2017-12-03T15:00:32.011Z,21.80
2017-12-03T15:02:58.264Z,21.53
2017-12-03T15:05:25.284Z,20.57
2017-12-03T15:07:51.583Z,18.90
2017-12-03T15:10:17.816Z,19.43
2017-12-03T15:12:44.074Z,22.33
2017-12-03T15:15:10.377Z,23.10
2017-12-03T15:17:36.690Z,20.20
2017-12-03T15:20:03.002Z,21.50
2017-12-03T15:22:30.003Z,21.87
2017-12-03T15:24:56.255Z,21.80
2017-12-03T15:27:23.307Z,21.57
2017-12-03T15:29:50.339Z,20.30
2017-12-03T15:32:17.391Z,23.40
2017-12-03T15:34:44.410Z,20.33
2017-12-03T15:37:10.644Z,21.90
2017-12-03T15:39:36.962Z,21.90
2017-12-03T15:42:03.254Z,21.17
2017-12-03T15:44:30.315Z,23.50
2017-12-03T15:46:56.624Z,21.67
2017-12-03T15:49:23.663Z,21.10
2017-12-03T15:51:50.744Z,22.53
2017-12-03T15:54:17.088Z,22.50
2017-12-03T15:56:43.420Z,20.60
2017-12-03T15:59:09.720Z,21.87
2017-12-03T16:01:36.813Z,19.90
2017-12-03T16:04:03.100Z,23.30
2017-12-03T16:06:29.375Z,20.23
2017-12-03T16:08:55.688Z,20.77
2017-12-03T16:11:21.955Z,22.10
2017-12-03T16:13:48.172Z,21.10
2017-12-03T16:16:14.440Z,23.33
2017-12-03T16:18:41.447Z,24.50
2017-12-03T16:21:07.747Z,24.50
2017-12-03T16:23:34.077Z,24.27
2017-12-03T16:26:00.423Z,21.50
2017-12-03T16:28:26.741Z,25.23
2017-12-03T16:30:53.068Z,24.17
2017-12-03T16:33:19.269Z,23.87
2017-12-03T16:35:46.262Z,24.43
2017-12-03T16:38:12.527Z,21.90
2017-12-03T16:40:39.584Z,24.00
2017-12-03T16:43:06.597Z,20.73
2017-12-03T16:45:32.911Z,22.87
2017-12-03T16:47:59.154Z,22.23
2017-12-03T16:50:25.466Z,23.37
2017-12-03T16:52:51.731Z,23.20
2017-12-03T16:55:18.713Z,22.40
2017-12-03T16:57:45.016Z,21.37
2017-12-03T17:00:12.071Z,23.00
2017-12-03T17:02:39.081Z,24.80
2017-12-03T17:05:05.413Z,25.63
2017-12-03T17:07:31.699Z,22.40
2017-12-03T17:09:57.971Z,21.40
2017-12-03T17:12:24.255Z,22.63
2017-12-03T17:14:50.548Z,19.13
2017-12-03T17:17:16.791Z,20.77
2017-12-03T17:19:43.807Z,22.60
2017-12-03T17:22:10.078Z,21.50
2017-12-03T17:24:37.082Z,20.20
2017-12-03T17:27:03.448Z,20.43
2017-12-03T17:29:30.462Z,20.50
2017-12-03T17:31:56.765Z,21.97
2017-12-03T17:34:23.072Z,20.50
2017-12-03T17:36:49.371Z,21.70
2017-12-03T17:39:16.361Z,22.90
2017-12-03T17:41:42.631Z,18.70
2017-12-03T17:44:08.930Z,18.53
2017-12-03T17:46:35.176Z,19.97
2017-12-03T17:49:01.428Z,18.13
2017-12-03T17:51:27.737Z,20.20
2017-12-03T17:53:54.009Z,19.57
2017-12-03T17:56:21.031Z,24.33
2017-12-03T17:58:48.058Z,20.73
2017-12-03T18:01:14.303Z,21.10
2017-12-03T18:03:40.609Z,19.67
2017-12-03T18:06:06.830Z,17.97
2017-12-03T18:08:33.103Z,19.00
2017-12-03T18:11:00.137Z,16.97
2017-12-03T18:13:26.429Z,20.33
2017-12-03T18:15:52.608Z,18.07
2017-12-03T18:18:18.869Z,20.47
2017-12-03T18:20:45.124Z,17.87
2017-12-03T18:23:11.376Z,17.77
2017-12-03T18:25:37.700Z,19.10
2017-12-03T18:28:04.081Z,19.87
2017-12-03T18:30:40.231Z,18.03
2017-12-03T18:35:56.595Z,18.20
2017-12-03T18:38:23.002Z,20.20
2017-12-03T18:40:54.923Z,19.17
2017-12-03T18:43:21.251Z,19.07
2017-12-03T18:45:47.547Z,21.37
2017-12-03T18:48:13.808Z,19.93
2017-12-03T18:50:40.115Z,20.13
2017-12-03T18:53:06.363Z,18.30
2017-12-03T18:55:32.711Z,17.47
2017-12-03T18:57:59.184Z,18.70
2017-12-03T19:00:25.477Z,17.70
2017-12-03T19:02:51.799Z,19.07
2017-12-03T19:05:18.112Z,19.03
2017-12-03T19:07:44.437Z,17.90
2017-12-03T19:10:10.748Z,19.97
2017-12-03T19:12:37.063Z,18.87
2017-12-03T19:15:03.462Z,18.90
2017-12-03T19:17:30.552Z,18.87
2017-12-03T19:19:56.821Z,16.93
2017-12-03T19:22:23.135Z,19.57
2017-12-03T19:24:49.491Z,18.40
2017-12-03T19:27:15.873Z,19.07
2017-12-03T19:29:42.134Z,17.63
2017-12-03T19:32:08.460Z,18.43
2017-12-03T19:34:34.776Z,19.03
2017-12-03T19:37:01.039Z,19.90
2017-12-03T19:39:27.305Z,18.33
2017-12-03T19:41:53.534Z,17.50
2017-12-03T19:44:19.866Z,18.23
2017-12-03T19:46:46.163Z,18.63
2017-12-03T19:49:12.392Z,18.77
2017-12-03T19:51:38.695Z,18.40
2017-12-03T19:54:04.996Z,17.40
2017-12-03T19:56:31.295Z,17.67
2017-12-03T19:58:58.347Z,17.13
2017-12-03T20:01:25.447Z,18.47
2017-12-03T20:03:51.724Z,17.67
2017-12-03T20:06:18.789Z,17.90
2017-12-03T20:08:45.079Z,18.70
2017-12-03T20:11:11.356Z,18.50
2017-12-03T20:13:38.515Z,17.70
2017-12-03T20:16:04.826Z,18.27
2017-12-03T20:18:31.197Z,17.07
2017-12-03T20:20:57.449Z,18.30
2017-12-03T20:23:23.804Z,18.50
2017-12-03T20:25:50.900Z,18.20
2017-12-03T20:28:17.999Z,16.57
2017-12-03T20:30:45.134Z,19.30
2017-12-03T20:33:11.498Z,17.07
2017-12-03T20:35:38.013Z,17.47
2017-12-03T20:38:05.222Z,16.87
2017-12-03T20:40:31.675Z,16.13
2017-12-03T20:42:57.908Z,18.87
2017-12-03T20:45:24.266Z,18.27
2017-12-03T20:47:50.561Z,18.50
2017-12-03T20:50:16.819Z,19.70
2017-12-03T20:52:43.871Z,17.87
2017-12-03T20:55:10.957Z,17.60
2017-12-03T20:57:37.220Z,18.43
2017-12-03T21:00:03.584Z,18.57
2017-12-03T21:02:29.903Z,20.13
2017-12-03T21:04:57.044Z,19.40
2017-12-03T21:07:24.035Z,19.50
2017-12-03T21:09:50.418Z,17.37
2017-12-03T21:12:16.683Z,17.87
2017-12-03T21:14:42.970Z,18.67
2017-12-03T21:17:09.242Z,18.77
2017-12-03T21:19:35.576Z,18.10
2017-12-03T21:22:01.886Z,20.47
2017-12-03T21:24:28.899Z,18.70
2017-12-03T21:26:55.272Z,19.10
2017-12-03T21:29:22.339Z,19.77
2017-12-03T21:31:48.671Z,18.60
2017-12-03T21:34:15.059Z,18.60
2017-12-03T21:36:42.018Z,19.10
2017-12-03T21:39:08.292Z,18.00
2017-12-03T21:41:34.614Z,19.77
2017-12-03T21:44:00.870Z,19.17
2017-12-03T21:46:27.060Z,17.40
2017-12-03T21:48:53.322Z,17.80
2017-12-03T21:51:19.595Z,18.50
2017-12-03T21:53:46.667Z,20.90
2017-12-03T21:56:12.903Z,19.00
2017-12-03T21:58:39.136Z,17.40
2017-12-03T22:01:05.390Z,18.60
2017-12-03T22:03:31.671Z,18.10
2017-12-03T22:05:58.643Z,19.20
2017-12-03T22:08:24.856Z,17.73
2017-12-03T22:10:51.127Z,17.43
2017-12-03T22:13:17.325Z,17.33
2017-12-03T22:15:43.564Z,16.90
2017-12-03T22:18:09.803Z,18.40
2017-12-03T22:20:36.052Z,18.20
2017-12-03T22:23:02.304Z,17.63
2017-12-03T22:25:29.271Z,17.13
2017-12-03T22:27:55.460Z,18.30
2017-12-03T22:30:21.778Z,17.20
2017-12-03T22:32:48.463Z,17.77
2017-12-03T22:35:14.692Z,19.67
2017-12-03T22:37:40.970Z,18.67
2017-12-03T22:40:07.266Z,17.30
2017-12-03T22:42:33.514Z,19.50
2017-12-03T22:44:59.735Z,18.33
2017-12-03T22:47:25.923Z,20.03
2017-12-03T22:49:52.821Z,19.47
2017-12-03T22:52:19.085Z,18.13
2017-12-03T22:54:46.169Z,18.67
2017-12-03T22:57:12.364Z,19.50
2017-12-03T22:59:39.371Z,19.20
2017-12-03T23:02:05.690Z,18.17
2017-12-03T23:04:31.916Z,16.43
2017-12-03T23:06:58.100Z,18.60
2017-12-03T23:09:25.387Z,18.07
2017-12-03T23:11:51.616Z,17.70
2017-12-03T23:14:17.900Z,18.23
2017-12-03T23:16:44.901Z,17.63
2017-12-03T23:19:11.176Z,19.20
2017-12-03T23:21:38.115Z,19.33
2017-12-03T23:24:04.366Z,18.40
2017-12-03T23:26:31.495Z,17.90
2017-12-03T23:28:57.782Z,17.27
2017-12-03T23:31:24.062Z,16.00
2017-12-03T23:33:51.123Z,18.10
2017-12-03T23:36:18.195Z,16.20
2017-12-03T23:38:44.460Z,16.03
2017-12-03T23:41:10.785Z,16.10
2017-12-03T23:43:37.063Z,17.20
2017-12-03T23:46:04.100Z,16.67
2017-12-03T23:48:31.061Z,16.10
2017-12-03T23:50:58.068Z,16.87
2017-12-03T23:53:24.312Z,15.97
2017-12-03T23:55:50.546Z,16.80
2017-12-03T23:58:17.594Z,15.17
